Time;durP1;ratioP1;P1;durP2;ratioP2;P2;SDS_P1;SDS_P2;PMS_P1;PMS_P2;Temp;Humidity;BMP_temperature;BMP_pressure;BME280_temperature;BME280_humidity;BME280_pressure;Samples;Min_cycle;Max_cycle;Signal;HPM_P1;HPM_P2
2023/05/12 00:02:06;;;;;;;48.30;29.98;;;11.10;99.90;;;;;;4974725;28;20408;-76
2023/05/12 00:04:32;;;;;;;57.67;30.23;;;11.00;99.90;;;;;;4958962;28;20101;-76
2023/05/12 00:07:07;;;;;;;71.55;32.45;;;11.00;99.90;;;;;;4975441;28;20038;-76
2023/05/12 00:09:33;;;;;;;67.78;32.28;;;11.10;99.90;;;;;;4977012;28;20618;-76
2023/05/12 00:12:00;;;;;;;56.85;30.55;;;11.10;99.90;;;;;;4984959;28;20033;-76
2023/05/12 00:14:32;;;;;;;51.25;28.63;;;11.10;99.90;;;;;;4989046;28;20045;-76
2023/05/12 00:17:03;;;;;;;51.03;27.83;;;11.10;99.90;;;;;;4980435;28;20049;-77
2023/05/12 00:19:37;;;;;;;46.92;28.15;;;11.10;99.90;;;;;;4990034;28;20136;-77
2023/05/12 00:22:11;;;;;;;39.70;25.08;;;11.10;99.90;;;;;;4981512;28;20488;-77
2023/05/12 00:24:43;;;;;;;43.45;26.20;;;11.00;99.90;;;;;;4988942;28;20080;-77
2023/05/12 00:27:22;;;;;;;50.45;26.45;;;11.10;99.90;;;;;;4977285;28;20046;-77
2023/05/12 00:29:51;;;;;;;42.55;23.58;;;11.10;99.90;;;;;;4975951;28;20044;-76
2023/05/12 00:32:32;;;;;;;47.88;24.88;;;11.10;99.90;;;;;;4977063;28;20092;-77
2023/05/12 00:35:10;;;;;;;33.85;22.02;;;11.10;99.90;;;;;;4964205;28;20576;-76
2023/05/12 00:37:44;;;;;;;30.50;20.33;;;11.10;99.90;;;;;;4984146;28;20045;-76
2023/05/12 00:40:16;;;;;;;32.70;20.77;;;11.10;99.90;;;;;;5003969;28;20480;-76
2023/05/12 00:42:50;;;;;;;36.85;21.92;;;11.10;99.90;;;;;;4980849;28;20046;-76
2023/05/12 00:45:19;;;;;;;32.47;21.88;;;11.10;99.90;;;;;;4981070;28;20546;-76
2023/05/12 00:47:48;;;;;;;29.27;20.58;;;11.10;99.90;;;;;;4979565;28;20046;-76
2023/05/12 00:50:19;;;;;;;29.95;20.20;;;11.20;99.90;;;;;;4972455;28;20457;-76
2023/05/12 00:52:57;;;;;;;28.40;20.67;;;11.10;99.90;;;;;;4994878;28;20046;-77
2023/05/12 00:55:34;;;;;;;36.90;22.63;;;11.00;99.90;;;;;;4980470;28;20038;-76
2023/05/12 00:58:02;;;;;;;33.85;23.00;;;11.10;99.90;;;;;;4979884;28;20512;-76
2023/05/12 01:00:37;;;;;;;32.42;21.52;;;11.10;99.90;;;;;;4995029;28;20033;-76
2023/05/12 01:03:03;;;;;;;31.55;21.83;;;11.10;99.90;;;;;;4984537;28;20033;-76
2023/05/12 01:05:35;;;;;;;35.60;24.30;;;11.10;99.90;;;;;;5000183;28;20195;-76
2023/05/12 01:08:02;;;;;;;33.60;23.88;;;11.10;99.90;;;;;;4975093;28;20054;-77
2023/05/12 01:10:38;;;;;;;60.15;28.80;;;11.20;99.90;;;;;;4972814;28;20038;-76
2023/05/12 01:13:10;;;;;;;46.10;27.95;;;11.20;99.90;;;;;;4981294;28;20393;-76
2023/05/12 01:15:38;;;;;;;50.72;29.27;;;11.10;99.90;;;;;;4983220;28;20042;-76
2023/05/12 01:18:14;;;;;;;54.83;30.75;;;11.10;99.90;;;;;;4995627;28;20081;-76
2023/05/12 01:20:47;;;;;;;60.28;31.98;;;11.10;99.90;;;;;;4980723;28;20050;-77
2023/05/12 01:23:20;;;;;;;66.03;34.08;;;11.10;99.90;;;;;;4977414;28;20069;-76
2023/05/12 01:25:50;;;;;;;63.83;35.88;;;11.10;99.90;;;;;;4978186;28;20091;-76
2023/05/12 01:28:26;;;;;;;70.60;38.22;;;11.20;99.90;;;;;;4989527;28;20044;-76
2023/05/12 01:30:52;;;;;;;108.53;41.55;;;11.30;99.90;;;;;;4998565;28;20060;-76
2023/05/12 01:33:20;;;;;;;80.15;40.10;;;11.20;99.90;;;;;;5002975;28;20042;-76
2023/05/12 01:35:54;;;;;;;75.25;40.38;;;11.20;99.90;;;;;;4978796;28;20651;-76
2023/05/12 01:38:23;;;;;;;81.57;41.35;;;11.30;99.90;;;;;;4980176;28;20041;-76
2023/05/12 01:40:58;;;;;;;92.30;45.17;;;11.20;99.90;;;;;;4981528;28;20069;-76
2023/05/12 01:43:26;;;;;;;83.40;44.15;;;11.20;99.90;;;;;;4984471;28;20050;-76
2023/05/12 01:45:57;;;;;;;95.38;46.08;;;11.20;99.90;;;;;;4973211;28;20590;-77
2023/05/12 01:48:23;;;;;;;90.15;45.28;;;11.20;99.90;;;;;;4974768;28;20080;-76
2023/05/12 01:50:51;;;;;;;98.72;46.28;;;11.20;99.90;;;;;;5002400;28;20046;-77
2023/05/12 01:53:17;;;;;;;91.53;46.70;;;11.20;99.90;;;;;;4984823;28;20041;-76
2023/05/12 01:55:52;;;;;;;106.60;49.08;;;11.20;99.90;;;;;;4985934;28;20064;-76
2023/05/12 01:58:19;;;;;;;142.00;52.50;;;11.20;99.90;;;;;;4978099;28;20046;-76
2023/05/12 02:00:45;;;;;;;120.03;49.75;;;11.20;99.90;;;;;;4976980;28;20077;-76
2023/05/12 02:03:10;;;;;;;97.20;49.53;;;11.20;99.90;;;;;;4973383;28;20074;-76
2023/05/12 02:05:45;;;;;;;107.53;51.33;;;11.30;99.90;;;;;;4994351;28;20120;-76
2023/05/12 02:08:15;;;;;;;106.20;50.25;;;11.30;99.90;;;;;;4974186;28;20046;-76
2023/05/12 02:10:44;;;;;;;118.10;52.80;;;11.20;99.90;;;;;;4979369;28;20069;-76
2023/05/12 02:13:13;;;;;;;142.48;56.08;;;11.30;99.90;;;;;;4975004;28;20054;-76
2023/05/12 02:15:41;;;;;;;109.60;51.72;;;11.20;99.90;;;;;;4979058;28;20030;-76
2023/05/12 02:18:10;;;;;;;110.72;53.70;;;11.30;99.90;;;;;;4978681;28;20049;-76
2023/05/12 02:20:41;;;;;;;155.70;60.55;;;11.30;99.90;;;;;;4978054;28;20038;-76
2023/05/12 02:23:07;;;;;;;119.65;56.28;;;11.40;99.90;;;;;;4995000;28;20077;-76
2023/05/12 02:25:41;;;;;;;119.03;58.40;;;11.40;99.90;;;;;;4974198;28;20073;-76
2023/05/12 02:28:10;;;;;;;141.85;61.53;;;11.40;99.90;;;;;;4991685;28;20115;-76
2023/05/12 02:30:53;;;;;;;128.48;61.72;;;11.50;99.90;;;;;;5011098;28;20053;-75
2023/05/12 02:33:24;;;;;;;137.88;63.22;;;11.50;99.90;;;;;;4986817;28;20053;-76
2023/05/12 02:35:50;;;;;;;128.10;61.50;;;11.40;99.90;;;;;;4976523;28;20054;-75
2023/05/12 02:38:18;;;;;;;134.77;63.95;;;11.50;99.90;;;;;;4976232;28;20076;-76
2023/05/12 02:40:48;;;;;;;135.07;66.18;;;11.40;99.90;;;;;;4979206;28;20157;-75
2023/05/12 02:43:19;;;;;;;138.10;66.15;;;11.50;99.90;;;;;;4983809;28;20037;-75
2023/05/12 02:45:50;;;;;;;138.88;67.05;;;11.50;99.90;;;;;;4972347;28;20049;-75
2023/05/12 02:48:16;;;;;;;144.75;64.93;;;11.50;99.90;;;;;;4976312;28;20038;-75
2023/05/12 02:50:47;;;;;;;155.73;67.65;;;11.50;99.90;;;;;;4961014;28;20053;-75
2023/05/12 02:53:16;;;;;;;179.80;70.45;;;11.50;99.90;;;;;;4975031;28;20052;-76
2023/05/12 02:55:50;;;;;;;162.57;68.80;;;11.50;99.90;;;;;;4965219;28;20046;-76
2023/05/12 02:58:21;;;;;;;140.95;66.57;;;11.50;99.90;;;;;;4976716;28;20073;-76
2023/05/12 03:00:50;;;;;;;148.05;69.07;;;11.50;99.90;;;;;;4978383;28;20562;-76
2023/05/12 03:03:20;;;;;;;160.85;72.00;;;11.50;99.90;;;;;;4979005;28;20057;-76
2023/05/12 03:05:50;;;;;;;131.90;66.85;;;11.50;99.90;;;;;;4970181;28;20129;-76
2023/05/12 03:08:18;;;;;;;152.15;69.28;;;11.50;99.90;;;;;;4989882;28;20407;-76
2023/05/12 03:10:52;;;;;;;142.07;69.07;;;11.60;99.90;;;;;;4979392;28;20069;-76
2023/05/12 03:13:21;;;;;;;156.00;70.13;;;11.60;99.90;;;;;;4978347;28;20168;-76
2023/05/12 03:15:49;;;;;;;142.57;68.95;;;11.60;99.90;;;;;;4976635;28;20103;-76
2023/05/12 03:18:15;;;;;;;137.55;67.97;;;11.60;99.90;;;;;;4977260;28;20096;-76
2023/05/12 03:20:41;;;;;;;151.13;70.95;;;11.70;99.90;;;;;;4978375;28;20057;-76
2023/05/12 03:23:15;;;;;;;140.25;67.82;;;11.60;99.90;;;;;;4994594;28;20034;-76
2023/05/12 03:25:47;;;;;;;135.60;70.95;;;11.60;99.90;;;;;;4977652;28;20049;-75
2023/05/12 03:28:19;;;;;;;129.68;67.43;;;11.60;99.90;;;;;;4978571;28;20046;-76
2023/05/12 03:30:47;;;;;;;205.73;78.55;;;11.70;99.90;;;;;;4978298;28;20125;-76
2023/05/12 03:33:22;;;;;;;135.52;69.22;;;11.70;99.90;;;;;;4979484;28;20041;-76
2023/05/12 03:35:53;;;;;;;137.75;69.60;;;11.70;99.90;;;;;;4976008;28;20058;-76
2023/05/12 03:38:21;;;;;;;141.35;72.28;;;11.70;99.90;;;;;;4994024;28;20087;-76
2023/05/12 03:41:06;;;;;;;177.23;76.43;;;11.70;99.90;;;;;;4993322;28;20137;-76
2023/05/12 03:43:32;;;;;;;201.02;76.43;;;11.70;99.90;;;;;;5003803;28;20448;-76
2023/05/12 03:46:02;;;;;;;160.00;74.13;;;11.70;99.90;;;;;;4967397;28;20578;-76
2023/05/12 03:48:33;;;;;;;214.30;80.60;;;11.70;99.90;;;;;;4983583;28;20060;-76
2023/05/12 03:51:09;;;;;;;158.13;76.10;;;11.80;99.90;;;;;;4989315;28;20049;-76
2023/05/12 03:53:44;;;;;;;162.00;75.88;;;11.80;99.90;;;;;;4997785;28;20038;-76
2023/05/12 03:56:15;;;;;;;188.63;78.20;;;11.90;99.90;;;;;;4982687;28;20099;-76
2023/05/12 03:58:52;;;;;;;161.77;75.70;;;11.80;99.90;;;;;;4974189;28;20425;-76
2023/05/12 04:01:24;;;;;;;170.38;76.78;;;11.80;99.90;;;;;;4996316;28;20038;-76
2023/05/12 04:03:52;;;;;;;189.15;80.25;;;11.80;99.90;;;;;;5004582;28;20129;-76
2023/05/12 04:06:23;;;;;;;165.65;75.53;;;11.80;99.90;;;;;;4981658;28;20109;-76
2023/05/12 04:08:52;;;;;;;188.48;80.15;;;11.80;99.90;;;;;;4977477;28;20065;-76
2023/05/12 04:11:28;;;;;;;180.70;77.10;;;11.80;99.90;;;;;;4975905;28;20381;-76
2023/05/12 04:13:57;;;;;;;174.52;77.15;;;11.90;99.90;;;;;;4983952;28;20053;-76
2023/05/12 04:18:51;;;;;;;188.88;79.53;;;11.90;99.90;;;;;;5053590;28;20506;-77
2023/05/12 04:21:16;;;;;;;198.60;82.95;;;11.90;99.90;;;;;;5053800;28;20048;-76
2023/05/12 04:23:42;;;;;;;191.05;78.75;;;11.90;99.90;;;;;;5052877;28;20045;-77
2023/05/12 04:26:07;;;;;;;142.15;71.20;;;11.90;99.90;;;;;;5039922;28;20039;-76
2023/05/12 04:28:33;;;;;;;145.90;73.72;;;11.90;99.90;;;;;;5048756;28;20041;-76
2023/05/12 04:31:05;;;;;;;142.40;71.70;;;11.90;99.90;;;;;;5033640;28;20072;-76
2023/05/12 04:33:31;;;;;;;146.18;74.32;;;12.00;99.90;;;;;;5033597;28;20048;-77
2023/05/12 04:35:57;;;;;;;143.90;73.97;;;12.00;99.90;;;;;;5031766;28;20500;-76
2023/05/12 04:38:23;;;;;;;171.65;78.95;;;12.00;99.90;;;;;;5032801;28;20046;-76
2023/05/12 04:40:48;;;;;;;181.77;77.40;;;12.00;99.90;;;;;;5033524;28;20419;-77
2023/05/12 04:43:14;;;;;;;142.93;74.10;;;12.10;99.90;;;;;;5032588;28;20033;-77
2023/05/12 04:45:40;;;;;;;137.98;73.93;;;12.10;99.90;;;;;;5032487;28;20064;-77
2023/05/12 04:48:05;;;;;;;119.10;69.55;;;12.10;99.90;;;;;;5033007;28;20100;-77
2023/05/12 04:50:31;;;;;;;127.75;70.28;;;12.10;99.90;;;;;;5032709;28;20523;-77
2023/05/12 04:52:57;;;;;;;124.97;69.20;;;12.20;99.90;;;;;;5033142;28;20136;-77
2023/05/12 04:55:22;;;;;;;102.65;64.40;;;12.20;99.90;;;;;;5032570;28;20065;-77
2023/05/12 04:57:48;;;;;;;110.60;68.30;;;12.20;99.90;;;;;;5016063;28;20038;-77
2023/05/12 05:00:14;;;;;;;107.20;66.43;;;12.30;99.90;;;;;;5032297;28;20057;-77
2023/05/12 05:02:40;;;;;;;100.95;63.28;;;12.30;99.90;;;;;;5030439;28;20034;-76
2023/05/12 05:05:06;;;;;;;106.80;62.38;;;12.40;99.90;;;;;;5032039;28;20044;-77
2023/05/12 05:07:32;;;;;;;106.43;65.97;;;12.40;99.90;;;;;;5032715;28;20049;-77
2023/05/12 05:09:57;;;;;;;96.20;58.60;;;12.40;99.90;;;;;;5032969;28;20041;-77
2023/05/12 05:12:23;;;;;;;103.85;66.10;;;12.50;99.90;;;;;;5014101;28;20553;-77
2023/05/12 05:14:49;;;;;;;107.18;59.92;;;12.50;99.90;;;;;;5032084;28;20407;-77
2023/05/12 05:17:14;;;;;;;89.07;56.08;;;12.40;99.90;;;;;;5032304;28;20392;-77
2023/05/12 05:19:40;;;;;;;93.35;59.33;;;12.50;99.90;;;;;;5033000;28;20124;-77
2023/05/12 05:22:05;;;;;;;84.35;55.58;;;12.50;99.90;;;;;;5032140;28;20539;-77
2023/05/12 05:24:31;;;;;;;88.55;59.65;;;12.50;99.90;;;;;;5032522;28;20034;-77
2023/05/12 05:26:57;;;;;;;86.78;57.47;;;12.60;99.90;;;;;;5015683;28;20553;-77
2023/05/12 05:29:22;;;;;;;79.03;54.47;;;12.60;99.90;;;;;;5031604;28;20439;-76
2023/05/12 05:31:48;;;;;;;82.78;56.22;;;12.60;99.90;;;;;;5031170;28;20384;-75
2023/05/12 05:34:13;;;;;;;86.38;57.28;;;12.70;99.90;;;;;;5028762;28;20052;-77
2023/05/12 05:36:39;;;;;;;82.03;57.47;;;12.70;99.90;;;;;;5029255;28;20037;-77
2023/05/12 05:39:05;;;;;;;80.80;57.75;;;12.70;99.90;;;;;;5031079;28;20044;-77
2023/05/12 05:41:30;;;;;;;82.68;58.38;;;12.70;99.90;;;;;;5030998;28;20558;-77
2023/05/12 05:43:56;;;;;;;77.18;55.92;;;12.70;99.90;;;;;;5031515;28;20025;-77
2023/05/12 05:46:21;;;;;;;76.35;56.63;;;12.80;99.90;;;;;;5031977;28;20042;-77
2023/05/12 05:48:47;;;;;;;72.43;55.13;;;12.80;99.90;;;;;;5031754;28;20045;-77
2023/05/12 05:51:12;;;;;;;78.28;56.00;;;12.80;99.90;;;;;;5032444;28;20080;-77
2023/05/12 05:53:38;;;;;;;71.05;53.15;;;12.90;99.90;;;;;;5031626;28;20045;-77
2023/05/12 05:56:04;;;;;;;77.88;56.13;;;12.90;99.90;;;;;;5030968;28;20092;-77
2023/05/12 05:58:29;;;;;;;72.65;55.05;;;12.90;99.90;;;;;;5031911;28;20484;-77
2023/05/12 06:00:55;;;;;;;74.78;55.85;;;13.00;99.90;;;;;;5030098;28;20034;-76
2023/05/12 06:03:22;;;;;;;73.80;55.20;;;13.00;99.90;;;;;;5014401;28;20120;-77
2023/05/12 06:05:48;;;;;;;71.65;53.55;;;13.00;99.90;;;;;;5031679;28;20041;-77
2023/05/12 06:08:13;;;;;;;70.25;55.90;;;13.00;99.90;;;;;;5031116;28;20040;-77
2023/05/12 06:10:39;;;;;;;64.22;50.92;;;13.00;99.90;;;;;;5030649;28;20041;-76
2023/05/12 06:13:05;;;;;;;70.55;52.97;;;13.10;99.90;;;;;;5030970;28;20128;-77
2023/05/12 06:15:32;;;;;;;64.50;49.85;;;13.10;99.90;;;;;;5031236;28;20132;-77
2023/05/12 06:17:57;;;;;;;70.72;53.83;;;13.10;99.90;;;;;;5030393;28;20049;-77
2023/05/12 06:20:23;;;;;;;73.13;54.80;;;13.10;99.90;;;;;;5031042;28;20040;-77
2023/05/12 06:22:49;;;;;;;68.40;55.05;;;13.10;99.90;;;;;;5014268;28;20037;-77
2023/05/12 06:25:15;;;;;;;65.25;52.30;;;13.20;99.90;;;;;;5014873;28;20042;-77
2023/05/12 06:27:40;;;;;;;66.00;53.40;;;13.20;99.90;;;;;;5026324;28;20049;-75
2023/05/12 06:30:07;;;;;;;75.57;55.17;;;13.20;99.90;;;;;;5019629;28;20037;-77
2023/05/12 06:32:32;;;;;;;66.50;52.47;;;13.30;99.90;;;;;;5028096;28;20048;-78
2023/05/12 06:34:58;;;;;;;66.57;52.00;;;13.30;99.90;;;;;;5009047;28;20037;-76
2023/05/12 06:37:24;;;;;;;64.05;50.58;;;13.40;99.90;;;;;;5028508;28;20040;-76
2023/05/12 06:39:49;;;;;;;63.05;50.58;;;13.40;99.90;;;;;;5009986;28;20037;-76
2023/05/12 06:42:15;;;;;;;59.83;49.75;;;13.40;99.90;;;;;;5021063;28;20099;-76
2023/05/12 06:44:41;;;;;;;60.25;48.75;;;13.40;99.90;;;;;;5029635;28;20129;-76
2023/05/12 06:47:06;;;;;;;59.88;47.97;;;13.30;99.90;;;;;;5029088;28;20041;-77
2023/05/12 06:49:35;;;;;;;56.60;46.85;;;13.40;99.90;;;;;;5029212;28;20033;-78
2023/05/12 06:52:01;;;;;;;62.03;50.95;;;13.40;99.90;;;;;;5014219;28;20042;-77
2023/05/12 06:54:27;;;;;;;58.35;47.63;;;13.50;99.90;;;;;;5031174;28;20391;-76
2023/05/12 06:56:53;;;;;;;56.42;48.10;;;13.50;99.90;;;;;;5030052;28;20037;-76
2023/05/12 06:59:19;;;;;;;59.35;47.08;;;13.50;99.90;;;;;;5030411;28;20064;-77
2023/05/12 07:01:44;;;;;;;57.85;48.78;;;13.60;99.90;;;;;;5029620;28;20210;-76
2023/05/12 07:04:10;;;;;;;53.22;45.53;;;13.60;99.90;;;;;;5029005;28;20039;-76
2023/05/12 07:06:35;;;;;;;53.05;45.15;;;13.80;99.90;;;;;;5030310;28;20033;-77
2023/05/12 07:09:01;;;;;;;50.40;43.33;;;13.80;99.90;;;;;;5029131;28;20099;-77
2023/05/12 07:11:27;;;;;;;51.15;44.67;;;13.90;99.90;;;;;;5030781;28;20391;-77
2023/05/12 07:13:52;;;;;;;53.65;43.92;;;14.00;99.90;;;;;;5028180;28;20686;-76
2023/05/12 07:16:18;;;;;;;49.70;42.75;;;14.00;99.90;;;;;;5027148;28;20052;-77
2023/05/12 07:18:44;;;;;;;46.65;40.83;;;14.10;99.90;;;;;;5012564;28;20029;-76
2023/05/12 07:21:11;;;;;;;47.80;42.63;;;14.30;99.90;;;;;;5025480;28;20120;-77
2023/05/12 07:23:37;;;;;;;52.67;42.72;;;14.40;99.90;;;;;;5031404;28;20044;-77
2023/05/12 07:26:04;;;;;;;54.15;45.50;;;14.40;99.90;;;;;;5030264;28;20083;-78
2023/05/12 07:28:34;;;;;;;45.58;40.63;;;14.50;99.90;;;;;;5030318;28;20037;-77
2023/05/12 07:31:00;;;;;;;46.85;41.70;;;14.60;99.90;;;;;;5029733;28;20096;-77
2023/05/12 07:33:26;;;;;;;45.15;40.30;;;14.70;99.90;;;;;;5030132;28;20111;-77
2023/05/12 07:35:51;;;;;;;41.78;37.47;;;14.80;99.90;;;;;;5030387;28;20515;-77
2023/05/12 07:38:17;;;;;;;43.35;38.70;;;14.90;99.90;;;;;;5030505;28;20112;-78
2023/05/12 07:40:43;;;;;;;43.70;39.05;;;15.00;99.90;;;;;;5012839;28;20030;-77
2023/05/12 07:43:09;;;;;;;43.75;38.67;;;15.10;99.90;;;;;;5029392;28;20120;-78
2023/05/12 07:45:35;;;;;;;41.60;37.20;;;15.20;99.90;;;;;;5030203;28;20037;-78
2023/05/12 07:48:01;;;;;;;43.17;38.85;;;15.30;99.90;;;;;;5029149;28;20466;-77
2023/05/12 07:50:26;;;;;;;46.92;41.83;;;15.40;99.90;;;;;;5029704;28;20076;-77
2023/05/12 07:52:52;;;;;;;43.22;38.85;;;15.50;99.90;;;;;;5033807;28;20091;-77
2023/05/12 07:55:20;;;;;;;44.90;40.10;;;15.60;99.90;;;;;;5034276;28;20053;-77
2023/05/12 07:57:46;;;;;;;41.28;37.13;;;15.70;99.90;;;;;;5034405;28;20403;-78
2023/05/12 08:00:12;;;;;;;43.00;38.65;;;15.70;99.90;;;;;;5034157;28;20041;-78
2023/05/12 08:02:38;;;;;;;41.28;36.90;;;15.80;99.90;;;;;;5032913;28;20131;-78
2023/05/12 08:05:05;;;;;;;43.65;39.10;;;15.80;99.90;;;;;;5049604;28;20049;-78
2023/05/12 08:07:30;;;;;;;40.17;36.08;;;15.70;99.90;;;;;;5032187;28;20627;-77
2023/05/12 08:09:56;;;;;;;39.78;35.70;;;15.70;99.90;;;;;;5034137;28;20050;-78
2023/05/12 08:12:22;;;;;;;39.97;35.97;;;15.70;99.90;;;;;;5031311;28;20030;-78
2023/05/12 08:14:47;;;;;;;38.40;34.55;;;15.70;99.90;;;;;;5033160;28;20120;-78
2023/05/12 08:17:13;;;;;;;38.65;34.53;;;15.70;99.90;;;;;;5016301;28;20406;-78
2023/05/12 08:19:38;;;;;;;37.65;33.83;;;15.70;99.90;;;;;;5030631;28;20052;-77
2023/05/12 08:22:04;;;;;;;39.08;35.13;;;15.70;99.90;;;;;;5033174;28;20067;-76
2023/05/12 08:24:29;;;;;;;37.65;33.90;;;15.70;99.90;;;;;;5033191;28;20037;-77
2023/05/12 08:26:55;;;;;;;41.10;36.97;;;15.80;99.90;;;;;;5033430;28;20045;-77
2023/05/12 08:29:21;;;;;;;39.95;35.95;;;15.80;99.90;;;;;;5033875;28;20044;-77
2023/05/12 08:31:46;;;;;;;40.40;36.40;;;15.90;99.90;;;;;;5032950;28;20731;-77
2023/05/12 08:34:12;;;;;;;40.90;36.75;;;15.90;99.90;;;;;;5033565;28;20491;-77
2023/05/12 08:36:38;;;;;;;39.17;35.30;;;15.90;99.90;;;;;;5033088;28;20124;-77
2023/05/12 08:39:04;;;;;;;39.03;34.95;;;15.90;99.90;;;;;;5032781;28;20452;-77
2023/05/12 08:41:47;;;;;;;36.70;32.92;;;15.90;99.90;;;;;;5033361;28;20124;-77
2023/05/12 08:44:14;;;;;;;38.17;34.37;;;16.00;99.90;;;;;;5033462;28;20044;-77
2023/05/12 08:46:40;;;;;;;36.88;33.15;;;16.10;99.90;;;;;;5031982;28;20877;-77
2023/05/12 08:49:10;;;;;;;37.35;33.58;;;16.30;99.90;;;;;;5033201;28;20054;-77
2023/05/12 08:51:39;;;;;;;36.10;32.50;;;16.50;99.90;;;;;;5032335;28;20561;-77
2023/05/12 08:54:08;;;;;;;38.35;34.50;;;16.60;99.90;;;;;;5033538;28;20076;-76
2023/05/12 08:56:34;;;;;;;35.95;32.40;;;16.80;99.90;;;;;;5028276;28;21799;-77
2023/05/12 08:59:05;;;;;;;33.92;30.73;;;16.90;99.90;;;;;;5031579;28;20491;-76
2023/05/12 09:01:34;;;;;;;33.70;30.50;;;17.00;99.90;;;;;;5031865;28;20376;-77
2023/05/12 09:03:59;;;;;;;33.35;30.30;;;17.10;99.90;;;;;;5016545;28;20065;-77
2023/05/12 09:06:25;;;;;;;32.15;29.02;;;17.20;99.90;;;;;;5032831;28;20103;-77
2023/05/12 09:08:51;;;;;;;33.60;30.45;;;17.20;99.90;;;;;;5033187;28;20045;-77
2023/05/12 09:11:18;;;;;;;32.80;29.63;;;17.30;99.90;;;;;;5032753;28;20041;-77
2023/05/12 09:14:00;;;;;;;32.60;29.50;;;17.30;99.90;;;;;;5016485;28;20120;-78
2023/05/12 09:16:30;;;;;;;34.75;31.48;;;17.40;99.90;;;;;;5032549;28;20411;-77
2023/05/12 09:18:57;;;;;;;30.00;27.30;;;17.40;99.90;;;;;;5032772;28;20045;-77
2023/05/12 09:21:23;;;;;;;31.20;28.30;;;17.60;99.90;;;;;;5032699;28;20045;-77
2023/05/12 09:24:04;;;;;;;33.83;30.63;;;17.80;99.90;;;;;;5032982;28;20159;-77
2023/05/12 09:26:31;;;;;;;32.58;29.45;;;17.70;99.90;;;;;;5031976;28;20041;-78
2023/05/12 09:29:08;;;;;;;33.03;29.83;;;17.70;99.90;;;;;;5032669;28;20041;-77
2023/05/12 09:31:33;;;;;;;31.80;28.90;;;17.70;99.90;;;;;;5016013;28;20124;-78
2023/05/12 09:34:01;;;;;;;30.45;27.60;;;17.50;99.90;;;;;;5032482;28;20448;-78
2023/05/12 09:36:27;;;;;;;32.28;29.27;;;17.60;99.90;;;;;;5031294;28;20057;-78
2023/05/12 09:39:06;;;;;;;32.42;29.30;;;17.70;99.90;;;;;;5031948;28;20045;-78
2023/05/12 09:41:39;;;;;;;31.40;28.42;;;17.70;99.90;;;;;;5048911;28;20037;-78
2023/05/12 09:44:07;;;;;;;26.92;24.42;;;17.80;99.90;;;;;;5015651;28;20034;-78
2023/05/12 09:46:33;;;;;;;28.60;25.90;;;18.00;99.90;;;;;;5048497;28;20068;-78
2023/05/12 09:48:59;;;;;;;30.90;27.98;;;18.10;99.90;;;;;;5032577;28;20396;-78
2023/05/12 09:51:26;;;;;;;31.60;28.63;;;18.30;99.90;;;;;;5031571;28;20073;-78
2023/05/12 09:53:52;;;;;;;31.60;28.60;;;18.40;99.90;;;;;;5032129;28;21204;-78
2023/05/12 09:56:18;;;;;;;31.38;28.48;;;18.40;99.90;;;;;;5031196;28;20049;-78
2023/05/12 09:58:46;;;;;;;28.65;26.00;;;18.60;99.90;;;;;;5032143;28;20033;-78
2023/05/12 10:01:17;;;;;;;27.90;25.40;;;18.80;99.90;;;;;;5015610;28;20033;-78
2023/05/12 10:03:46;;;;;;;29.00;26.38;;;19.10;99.90;;;;;;5032049;28;20116;-78
2023/05/12 10:06:19;;;;;;;27.10;24.70;;;19.40;99.90;;;;;;5031857;28;20041;-78
2023/05/12 10:08:50;;;;;;;30.65;27.92;;;19.60;99.90;;;;;;5031960;28;20056;-78
2023/05/12 10:11:16;;;;;;;26.77;24.38;;;19.80;99.90;;;;;;5014774;28;20049;-78
2023/05/12 10:13:42;;;;;;;24.52;22.40;;;20.10;99.90;;;;;;5030961;28;20041;-78
2023/05/12 10:16:08;;;;;;;24.08;21.92;;;20.40;99.90;;;;;;5031833;28;20663;-78
2023/05/12 10:18:34;;;;;;;22.75;20.70;;;20.70;99.90;;;;;;5047947;23;20339;-85
2023/05/12 10:21:01;;;;;;;20.73;18.92;;;21.00;99.90;;;;;;5038739;28;20314;-85
2023/05/12 10:23:27;;;;;;;20.60;18.80;;;21.30;99.90;;;;;;5035406;28;20029;-87
2023/05/12 10:26:00;;;;;;;17.55;15.95;;;21.50;99.90;;;;;;5045684;28;20544;-85
2023/05/12 10:28:27;;;;;;;18.08;16.48;;;21.40;99.90;;;;;;5040515;28;20072;-83
2023/05/12 10:30:53;;;;;;;15.60;14.20;;;21.30;99.90;;;;;;5021762;28;20037;-81
2023/05/12 10:33:20;;;;;;;19.55;17.75;;;21.30;99.90;;;;;;5022979;28;20037;-83
2023/05/12 10:35:45;;;;;;;20.60;18.83;;;21.60;99.90;;;;;;5032253;28;20041;-84
2023/05/12 10:38:13;;;;;;;13.60;12.40;;;21.70;99.90;;;;;;5033268;28;20044;-84
2023/05/12 10:41:09;;;;;;;11.20;10.20;;;21.80;99.90;;;;;;5015691;28;20064;-84
2023/05/12 10:43:47;;;;;;;15.40;14.00;;;22.20;99.90;;;;;;5022334;28;20087;-84
2023/05/12 10:46:16;;;;;;;15.05;13.75;;;22.40;99.90;;;;;;5022109;28;20042;-84
2023/05/12 10:49:09;;;;;;;14.50;13.30;;;22.10;99.90;;;;;;5015455;28;20127;-83
2023/05/12 10:51:43;;;;;;;15.07;13.77;;;21.80;99.90;;;;;;5023080;28;20056;-83
2023/05/12 10:54:11;;;;;;;15.07;13.77;;;21.80;99.90;;;;;;5035789;28;20564;-84
2023/05/12 10:56:37;;;;;;;16.00;14.68;;;22.00;99.90;;;;;;5040252;28;20087;-84
2023/05/12 10:59:17;;;;;;;12.55;11.55;;;22.30;99.90;;;;;;5050872;28;20049;-83
2023/05/12 11:02:17;;;;;;;11.25;10.35;;;23.00;99.90;;;;;;5016360;28;20125;-83
2023/05/12 11:04:52;;;;;;;14.30;13.10;;;23.30;98.50;;;;;;5024552;28;20040;-81
2023/05/12 11:07:23;;;;;;;12.85;11.75;;;23.40;99.90;;;;;;5021210;28;20499;-84
2023/05/12 11:09:49;;;;;;;12.23;11.23;;;23.60;99.90;;;;;;5028101;28;20082;-83
2023/05/12 11:12:15;;;;;;;11.90;10.90;;;23.70;99.90;;;;;;5042511;28;20060;-81
2023/05/12 11:14:42;;;;;;;10.95;10.05;;;23.60;99.90;;;;;;5043208;28;20049;-81
2023/05/12 11:17:09;;;;;;;11.00;10.10;;;23.50;99.90;;;;;;5042107;28;20088;-82
2023/05/12 11:19:36;;;;;;;9.80;9.00;;;23.40;99.90;;;;;;5011167;28;20047;-83
2023/05/12 11:22:11;;;;;;;10.20;9.32;;;23.10;97.20;;;;;;5014093;28;20060;-81
2023/05/12 11:24:39;;;;;;;10.85;10.00;;;22.90;99.90;;;;;;5034309;28;20033;-82
2023/05/12 11:27:06;;;;;;;11.30;10.30;;;22.70;99.50;;;;;;5035260;28;20178;-83
2023/05/12 11:29:32;;;;;;;11.43;10.45;;;22.60;98.80;;;;;;5021470;28;20037;-82
2023/05/12 11:31:59;;;;;;;10.20;9.32;;;22.60;99.90;;;;;;5014853;28;20466;-82
2023/05/12 11:34:26;;;;;;;8.70;7.85;;;22.70;99.90;;;;;;5017550;28;20116;-82
2023/05/12 11:36:53;;;;;;;8.40;7.70;;;23.30;98.90;;;;;;5017197;28;20034;-80
2023/05/12 11:39:21;;;;;;;8.40;7.72;;;23.60;99.90;;;;;;5033243;28;20034;-81
2023/05/12 11:41:47;;;;;;;9.15;8.35;;;24.00;89.80;;;;;;5033714;28;20044;-79
2023/05/12 11:44:16;;;;;;;7.95;7.35;;;24.30;77.50;;;;;;5030568;28;20415;-80
2023/05/12 11:47:02;;;;;;;8.30;7.30;;;24.40;92.50;;;;;;5018877;28;20048;-79
2023/05/12 11:49:29;;;;;;;8.52;7.60;;;24.80;99.90;;;;;;5003117;28;20042;-80
2023/05/12 11:52:00;;;;;;;7.57;6.93;;;25.30;91.30;;;;;;5021755;28;20115;-79
2023/05/12 11:54:29;;;;;;;7.38;6.68;;;25.60;71.50;;;;;;5033807;28;20037;-80
2023/05/12 11:56:56;;;;;;;7.53;6.88;;;25.30;69.20;;;;;;5018223;28;20030;-80
2023/05/12 11:59:40;;;;;;;8.38;7.63;;;25.20;78.70;;;;;;5025857;28;20036;-81
2023/05/12 12:02:06;;;;;;;7.97;7.28;;;25.30;74.50;;;;;;5033690;28;20501;-82
2023/05/12 12:04:40;;;;;;;7.88;7.20;;;25.20;73.80;;;;;;5030114;28;20039;-82
2023/05/12 12:07:07;;;;;;;8.70;7.85;;;25.20;72.60;;;;;;5017807;28;20098;-82
2023/05/12 12:09:40;;;;;;;7.60;6.90;;;25.10;76.40;;;;;;5029851;28;20405;-79
2023/05/12 12:12:07;;;;;;;7.57;6.75;;;25.20;74.00;;;;;;5029809;28;20045;-79
2023/05/12 12:14:35;;;;;;;7.40;6.80;;;25.30;71.80;;;;;;5032933;28;20441;-80
2023/05/12 12:17:01;;;;;;;7.38;6.75;;;25.20;70.00;;;;;;5029520;28;20049;-80
2023/05/12 12:19:27;;;;;;;5.88;5.30;;;25.20;75.30;;;;;;5032018;28;20039;-81
2023/05/12 12:21:54;;;;;;;4.90;4.45;;;25.30;74.40;;;;;;5039261;28;20036;-80
2023/05/12 12:24:19;;;;;;;5.90;4.88;;;25.50;68.40;;;;;;5029004;28;20033;-80
2023/05/12 12:26:45;;;;;;;6.00;5.50;;;25.70;68.30;;;;;;5024378;28;20120;-80
2023/05/12 12:29:11;;;;;;;6.28;5.68;;;25.80;71.10;;;;;;5045195;28;20034;-81
2023/05/12 12:31:36;;;;;;;6.07;5.47;;;26.00;67.60;;;;;;5039189;28;20072;-80
2023/05/12 12:34:03;;;;;;;5.20;4.10;;;26.10;70.00;;;;;;5028402;28;20033;-82
2023/05/12 12:36:29;;;;;;;4.55;4.15;;;26.00;61.10;;;;;;5017423;28;20391;-84